Date,TemperatureHighF,TemperatureAvgF,TemperatureLowF,DewpointHighF,DewpointAvgF,DewpointLowF,HumidityHigh,HumidityAvg,HumidityLow,PressureMaxIn,PressureMinIn,WindSpeedMaxMPH,WindSpeedAvgMPH,GustSpeedMaxMPH,PrecipitationSumIn
2013-1-1,27,17,10,20,13,6,89,83,68,30.71,30.50,8,1,8,0.00
2013-1-2,28,15,4,20,10,0,89,82,67,30.72,30.62,7,0,7,0.00
2013-1-3,28,14,3,17,9,-1,88,79,61,30.68,30.58,8,1,8,0.00
2013-1-4,29,16,4,18,10,0,88,78,62,30.70,30.57,7,0,7,0.00
2013-1-5,29,18,7,18,12,4,89,77,61,30.62,30.34,5,0,5,0.00
2013-1-6,37,27,16,24,19,12,87,72,59,30.41,30.25,9,1,9,0.00
2013-1-7,35,22,9,24,16,5,88,79,64,30.53,30.41,6,0,6,0.00
2013-1-8,44,32,17,29,24,14,90,73,54,30.52,30.39,7,1,8,0.00
2013-1-9,55,35,19,34,26,17,92,72,42,30.39,29.73,35,2,35,0.01
2013-1-10,37,31,25,27,18,12,73,58,42,29.93,29.78,25,8,25,0.00
2013-1-11,32,24,12,22,16,7,88,74,50,30.28,30.06,20,5,20,0.00
2013-1-12,26,13,2,14,6,-2,86,75,54,30.45,30.28,7,1,8,0.00
2013-1-13,23,9,-2,10,3,-6,85,74,51,30.65,30.44,13,1,13,0.00
2013-1-14,25,12,-3,11,3,-7,85,70,46,30.80,30.64,9,1,9,0.00
2013-1-15,33,19,6,14,9,2,81,65,43,30.91,30.79,5,0,6,0.00
2013-1-16,35,19,5,16,9,1,83,67,45,30.94,30.80,7,0,7,0.00
2013-1-17,34,19,4,18,10,0,85,70,49,30.85,30.70,7,0,7,0.00
2013-1-18,35,25,12,19,14,7,83,64,50,30.74,30.65,7,1,7,0.00
2013-1-19,36,19,3,19,11,-1,85,71,49,30.78,30.65,7,0,7,0.00
2013-1-20,18,10,5,12,6,1,87,83,70,30.73,30.66,5,0,5,0.00
2013-1-21,40,21,6,19,12,2,87,69,41,30.69,30.52,7,1,7,0.00
2013-1-22,40,22,8,20,13,4,86,69,42,30.57,30.38,9,1,9,0.00
2013-1-23,43,29,18,22,17,12,79,63,41,30.40,30.22,8,1,9,0.00
2013-1-24,47,38,33,37,32,22,90,77,59,30.32,30.25,11,0,11,0.02
2013-1-25,52,40,31,42,36,30,95,85,67,30.30,30.05,6,0,6,0.00
2013-1-26,60,40,26,40,28,24,95,67,30,30.05,29.76,16,3,16,0.00
2013-1-27,38,32,20,30,23,14,89,70,47,30.15,29.85,19,4,20,0.02
2013-1-28,41,29,12,27,19,9,87,67,46,30.27,30.15,15,3,16,0.00
2013-1-29,51,42,35,32,29,24,75,59,46,30.40,30.19,25,7,25,0.00
2013-1-30,57,41,26,34,29,23,89,65,37,30.44,30.34,11,2,11,0.00
2013-1-31,57,38,22,34,28,20,90,69,41,30.42,30.25,13,1,13,0.00
2013-2-1,55,37,24,35,28,21,92,71,46,30.42,30.29,9,1,9,0.00
2013-2-2,47,35,24,34,28,21,90,75,57,30.47,30.36,5,0,5,0.00
2013-2-3,54,36,21,35,26,18,92,71,41,30.37,30.25,12,1,12,0.00
2013-2-4,58,38,20,29,23,16,88,60,27,30.31,30.10,8,1,8,0.00
2013-2-5,61,43,23,27,19,8,83,45,15,30.11,29.90,19,3,19,0.00
2013-2-6,53,37,22,30,20,13,89,53,26,30.17,30.07,11,1,11,0.00
2013-2-7,54,37,17,20,14,-1,75,43,11,30.08,29.86,28,4,28,0.00
2013-2-8,38,32,24,26,19,16,75,60,50,30.01,29.87,23,6,23,0.00
2013-2-9,42,32,22,18,16,12,76,52,32,30.16,30.00,16,3,16,0.00
2013-2-10,44,34,21,24,18,10,69,52,33,30.22,30.11,21,4,21,0.00
2013-2-11,46,30,14,19,12,7,81,50,26,30.40,30.21,11,1,11,0.00
2013-2-12,53,33,15,21,15,8,73,49,28,30.49,30.40,8,1,8,0.00
2013-2-13,54,36,18,25,19,12,81,53,32,30.49,30.34,9,1,9,0.00
2013-2-14,54,38,22,30,23,16,84,57,37,30.52,30.35,13,2,14,0.00
2013-2-15,57,38,20,28,22,16,85,57,31,30.56,30.39,10,1,10,0.00
2013-2-16,59,40,20,27,19,15,82,48,20,30.43,30.06,8,1,9,0.00
2013-2-17,50,38,22,27,16,2,69,42,19,30.12,29.91,18,3,18,0.00
2013-2-18,55,35,15,19,13,4,69,42,22,30.12,29.80,8,1,8,0.00
2013-2-19,49,40,32,26,18,8,75,43,20,29.81,29.51,29,6,29,0.00
2013-2-20,46,35,22,21,14,6,68,44,20,30.01,29.65,20,6,20,0.00
2013-2-21,47,32,16,17,11,6,70,43,24,30.21,29.99,12,2,12,0.00
2013-2-22,54,39,21,24,18,12,75,45,26,30.29,30.03,16,2,16,0.00
2013-2-23,48,36,20,32,18,8,89,49,28,30.31,29.86,31,6,31,0.00
2013-2-24,43,29,14,18,11,4,80,50,25,30.48,30.31,9,1,9,0.00
2013-2-25,45,25,15,14,8,3,66,50,27,30.38,30.24,6,0,6,0.00
2013-3-3,50,45,40,43,40,37,90,82,70,29.99,29.92,8,2,8,0.10
2013-3-4,56,41,30,39,33,27,93,74,42,30.15,29.98,10,1,10,0.01
2013-3-5,68,46,25,34,26,9,92,53,10,30.01,29.67,24,4,24,0.00
2013-3-6,51,44,34,31,21,14,62,40,28,29.94,29.53,40,10,40,0.00
2013-3-7,45,36,26,30,23,16,81,60,41,29.98,29.89,11,2,11,0.00
2013-3-8,51,39,30,29,26,22,84,61,36,29.99,29.82,15,2,15,0.00
2013-3-9,54,41,29,24,11,0,64,34,11,30.42,29.99,25,4,25,0.00
2013-3-10,59,42,21,16,10,6,63,31,13,30.51,30.35,9,1,10,0.00
2013-3-11,66,46,25,17,11,7,54,28,10,30.38,30.16,14,1,14,0.00
2013-3-12,72,50,29,24,18,12,57,31,14,30.24,30.09,9,1,10,0.00
2013-3-13,78,56,32,26,18,11,57,28,8,30.21,30.05,11,1,11,0.00
2013-3-14,70,54,38,27,22,18,51,31,16,30.11,30.04,5,0,5,0.00
2013-3-15,74,55,35,29,21,8,65,32,8,30.09,29.93,14,2,14,0.00
2013-3-16,72,56,38,29,22,12,57,29,11,29.98,29.76,26,5,26,0.00
2013-3-17,55,46,35,22,17,9,55,33,16,30.01,29.91,14,2,14,0.00
2013-3-18,64,49,28,26,14,10,52,28,13,30.10,29.94,18,2,18,0.00
2013-3-19,68,56,45,36,30,24,49,38,25,30.05,29.87,20,5,20,0.00
2013-3-20,67,56,49,35,32,29,50,40,27,29.88,29.75,38,10,38,0.00
2013-3-21,57,46,33,32,22,4,81,42,16,30.03,29.84,16,3,17,0.00
2013-3-22,51,37,24,12,6,0,53,28,13,30.21,29.98,17,4,21,0.00
2013-3-23,52,36,17,10,6,1,55,31,15,30.33,30.13,12,2,12,0.00
2013-3-24,63,43,22,15,8,1,45,26,14,30.23,29.98,14,1,14,0.00
2013-3-25,70,52,30,22,12,-7,45,24,5,30.01,29.78,21,3,21,0.00
2013-3-26,69,56,39,28,24,16,51,30,17,29.83,29.71,22,4,22,0.00
2013-3-27,69,52,34,32,28,23,72,42,20,29.90,29.79,13,2,15,0.00
2013-3-28,69,56,46,36,32,24,59,42,22,30.03,29.87,25,3,25,0.00
2013-3-29,72,56,38,37,31,22,79,43,18,30.10,29.97,9,1,10,0.00
2013-3-30,79,59,38,30,27,23,58,32,14,30.06,29.80,15,2,15,0.00
2013-3-31,52,48,37,42,38,33,86,67,56,29.95,29.86,22,3,22,0.02
2013-4-1,62,48,34,38,32,27,87,58,26,30.07,29.95,20,4,22,0.00
2013-4-2,66,48,34,38,34,30,88,64,30,30.12,30.04,9,2,9,0.00
2013-4-7,69,59,46,27,24,19,45,27,16,29.82,29.54,33,12,33,0.00
2013-4-8,49,42,36,34,26,18,82,55,29,30.03,29.50,30,11,30,0.00
2013-4-9,56,41,33,24,21,15,66,48,20,30.19,30.03,20,6,21,0.00
2013-4-13,76,66,46,30,24,9,25,20,16,29.73,29.51,30,9,30,0.00
2013-4-14,67,51,36,33,17,5,68,28,16,29.76,29.52,37,5,37,0.00
2013-4-15,43,36,34,36,33,32,92,88,68,29.73,29.62,17,4,19,0.03
2013-4-16,41,36,33,24,21,18,67,55,41,30.04,29.97,21,10,22,0.00
2013-4-17,52,44,32,13,8,4,45,24,15,30.34,30.28,17,3,23,0.00
2013-4-18,51,34,25,17,15,11,63,47,21,30.41,30.34,8,1,8,0.00
2013-4-19,74,62,32,31,25,20,62,26,14,30.25,29.94,24,6,26,0.00
2013-4-20,68,55,40,29,23,16,55,31,15,30.11,29.97,19,3,19,0.00
2013-4-21,76,58,36,25,21,17,58,28,11,30.08,29.88,23,4,23,0.00
2013-4-22,70,56,41,34,23,8,63,31,15,30.12,29.90,26,6,26,0.00
2013-4-23,65,49,32,11,3,-10,37,18,4,30.20,29.93,13,2,13,0.00
2013-4-24,70,54,35,15,6,-1,31,16,6,30.11,29.87,16,3,16,0.00
2013-4-25,76,58,38,12,4,-10,31,13,1,29.99,29.88,18,2,18,0.00
2013-4-26,82,63,42,25,18,5,40,21,9,30.13,29.98,16,2,16,0.00
2013-4-27,86,68,45,36,25,13,59,25,7,30.11,29.89,13,2,13,0.00
2013-4-28,84,70,53,34,28,19,45,24,9,29.93,29.75,18,4,18,0.00
2013-4-29,82,67,52,37,30,24,43,27,12,29.84,29.59,24,3,24,0.00
2013-4-30,70,57,45,28,12,-10,49,21,5,30.09,29.68,22,7,22,0.00
2013-5-1,65,51,36,10,0,-9,31,14,5,30.40,30.08,15,5,16,0.00
2013-5-2,77,56,33,14,0,-10,35,13,2,30.46,30.14,14,2,15,0.00
2013-5-3,83,63,37,18,4,-10,46,14,2,30.14,29.81,21,3,21,0.00
2013-5-4,74,60,47,30,23,11,38,24,13,29.85,29.55,21,4,21,0.00
2013-5-5,79,62,46,41,32,25,58,36,15,29.65,29.47,24,5,24,0.00
2013-5-6,74,59,50,42,37,26,71,48,18,29.77,29.60,28,6,28,0.00
2013-5-7,63,53,48,48,42,38,91,66,42,29.91,29.77,20,5,20,0.10
2013-5-8,74,59,48,51,43,34,92,60,26,29.99,29.88,12,2,12,0.01
2013-5-9,82,65,52,53,42,32,72,48,18,30.00,29.86,28,3,30,0.02
2013-5-10,86,70,50,49,38,26,80,40,12,30.05,29.94,21,2,21,0.00
2013-5-11,90,73,51,44,30,-3,66,28,3,30.05,29.91,14,2,14,0.00
2013-5-12,93,77,55,42,34,22,54,25,8,29.99,29.81,16,3,16,0.00
2013-5-13,93,74,54,43,32,25,56,26,10,29.91,29.75,26,4,27,0.00
2013-5-14,90,71,51,40,31,14,47,25,7,29.83,29.65,29,4,30,0.00
2013-5-15,86,70,58,41,27,1,49,25,4,29.76,29.67,28,8,30,0.00
2013-5-16,67,60,54,45,37,30,54,42,32,29.78,29.69,21,4,23,0.00
2013-5-17,75,61,47,43,34,19,76,41,13,29.90,29.73,20,4,22,0.00
2013-5-18,76,58,43,37,32,25,62,39,16,29.97,29.85,29,4,29,0.00
2013-5-19,72,60,49,38,29,16,64,34,13,30.09,29.97,21,5,21,0.00
2013-5-20,78,61,40,32,22,4,55,27,6,30.13,29.84,11,1,11,0.00
2013-5-21,82,66,49,34,22,6,44,21,9,29.84,29.53,37,8,37,0.00
2013-5-22,63,53,41,26,8,-10,45,19,5,29.76,29.57,22,6,23,0.00
2013-5-23,67,52,31,19,12,2,46,22,9,29.94,29.74,22,3,22,0.00
2013-5-24,82,60,34,24,12,-10,61,23,1,29.95,29.70,20,3,21,0.00
2013-5-25,79,64,42,28,20,11,47,20,8,29.81,29.67,21,3,22,0.00
2013-5-26,79,62,44,31,24,10,54,27,8,29.85,29.75,24,4,24,0.00
2013-5-27,74,64,54,47,36,21,77,39,14,29.85,29.75,25,7,25,0.01
2013-5-28,70,60,50,46,38,29,80,48,22,29.79,29.71,20,6,20,0.06
2013-5-29,77,65,50,41,34,25,65,35,16,29.75,29.66,23,5,23,0.00
2013-5-30,83,66,44,38,29,15,73,31,9,29.88,29.72,19,3,19,0.00
2013-5-31,83,67,45,27,17,8,41,17,6,30.02,29.88,10,2,12,0.00
2013-6-1,89,70,44,34,21,7,51,20,5,29.96,29.69,14,1,14,0.00
2013-6-2,95,78,58,40,30,16,45,20,6,29.69,29.45,19,4,19,0.00
2013-6-3,90,73,54,28,22,11,30,16,9,29.74,29.61,15,4,15,0.00
2013-6-4,93,75,52,28,18,11,33,13,5,29.80,29.66,17,3,18,0.00
2013-6-5,95,77,52,37,26,13,47,18,5,29.86,29.69,13,2,13,0.00
2013-6-6,100,82,54,35,25,-4,47,17,2,29.78,29.62,17,2,18,0.00
2013-6-7,102,85,65,39,24,-4,32,14,2,29.72,29.56,18,3,18,0.00
2013-6-8,100,85,66,42,36,20,42,19,10,29.71,29.58,15,4,15,0.00
2013-6-9,104,83,59,42,32,22,44,18,7,29.66,29.46,44,3,44,0.00
2013-6-10,93,74,64,50,45,39,56,37,20,29.66,29.39,27,6,33,0.00
2013-6-11,93,74,53,47,39,25,72,34,9,29.75,29.66,23,4,23,0.00
2013-6-12,91,75,56,44,32,15,54,24,10,29.73,29.58,34,7,34,0.00
2013-6-13,84,68,45,33,16,-8,50,18,1,29.95,29.72,24,5,24,0.00
2013-6-14,80,65,48,29,23,11,47,23,11,30.00,29.78,14,3,14,0.00
2013-6-15,89,71,45,28,14,-3,41,15,3,29.82,29.66,19,2,19,0.00
2013-6-16,90,75,56,30,22,9,26,15,5,29.84,29.75,18,4,18,0.00
2013-6-17,92,75,55,36,24,6,40,19,4,29.86,29.68,26,5,26,0.00
2013-6-18,88,69,47,35,24,14,57,22,7,29.74,29.50,38,6,38,0.00
2013-6-19,76,62,47,29,24,17,49,25,11,29.86,29.67,21,5,21,0.00
2013-6-20,78,63,41,33,28,22,65,29,13,29.91,29.74,18,2,19,0.00
2013-6-21,79,65,46,36,28,17,61,29,11,29.93,29.78,19,3,19,0.00
2013-6-22,84,68,49,34,28,20,42,24,10,29.91,29.68,12,2,12,0.00
2013-6-23,84,69,53,44,34,23,53,30,12,29.69,29.53,32,5,32,0.00
2013-6-24,69,61,50,54,45,34,85,58,35,29.76,29.56,12,2,12,0.07
2013-6-25,85,69,53,56,50,43,92,55,24,29.81,29.73,33,6,33,0.00
2013-6-26,96,76,52,51,43,28,81,37,11,29.87,29.76,19,2,19,0.00
2013-6-27,100,82,63,48,40,31,51,27,10,29.93,29.79,20,2,20,0.00
2013-6-28,106,89,70,45,36,20,34,18,5,29.88,29.63,26,3,27,0.00
2013-6-29,105,90,75,53,42,25,45,22,7,29.72,29.58,24,3,24,0.00
2013-6-30,108,90,72,44,35,25,28,16,6,29.68,29.50,21,3,21,0.00
2013-7-1,110,91,70,49,40,23,43,20,5,29.72,29.56,30,3,30,0.00
2013-7-2,108,89,71,52,45,33,45,25,8,29.79,29.61,33,4,33,0.00
2013-7-3,102,85,69,56,51,42,57,34,14,29.82,29.59,20,3,21,0.00
2013-7-4,99,80,67,63,54,46,78,44,18,29.70,29.49,21,2,21,0.16
2013-7-5,100,80,60,61,46,18,91,43,7,29.59,29.46,18,2,18,0.00
2013-7-6,99,80,55,45,32,11,59,24,5,29.58,29.45,21,3,21,0.00
2013-7-7,97,81,62,42,32,24,42,20,8,29.65,29.50,13,2,17,0.00
2013-7-8,95,80,60,45,34,20,45,22,7,29.78,29.65,16,2,16,0.00
2013-7-9,99,82,61,37,28,16,39,17,6,29.87,29.72,21,3,21,0.00
2013-7-10,98,81,59,40,34,25,45,21,8,29.84,29.66,22,3,23,0.00
2013-7-11,95,82,71,54,35,18,49,21,8,29.70,29.55,18,3,19,0.00
2013-7-12,95,75,56,42,27,-8,47,21,2,29.74,29.59,17,2,17,0.00
2013-7-13,94,77,55,40,22,-1,44,18,3,29.81,29.68,20,2,20,0.00
2013-7-14,96,80,61,36,26,13,34,16,5,29.83,29.64,12,2,12,0.00
2013-7-15,99,83,61,43,33,22,43,19,7,29.69,29.44,13,2,14,0.00
2013-7-16,98,83,70,42,33,16,33,18,7,29.73,29.51,19,5,19,0.00
2013-7-17,96,78,55,33,18,-8,40,15,2,29.89,29.73,11,2,11,0.00
2013-7-18,101,83,62,37,18,-7,34,13,1,29.85,29.66,9,2,9,0.00
2013-7-19,106,88,68,42,26,5,32,14,3,29.72,29.53,11,2,11,0.00
2013-7-20,108,91,69,41,26,8,34,13,3,29.61,29.44,13,3,13,0.00
2013-7-21,104,80,70,38,33,14,29,19,4,29.57,29.46,12,2,12,0.78
2013-7-22,84,84,84,46,46,46,27,27,27,0.00,40.00,6,4,8,0.00
2013-7-25,95,86,78,52,48,41,40,28,17,29.83,29.71,28,5,28,0.00
2013-7-26,102,81,68,61,51,39,73,41,12,29.87,29.71,27,4,27,0.20
2013-7-27,95,80,61,58,50,32,81,41,12,29.84,29.60,21,2,21,0.01
2013-7-28,96,80,63,49,42,32,57,28,12,29.66,29.50,17,3,18,0.00
2013-7-29,97,79,61,49,36,21,60,26,7,29.79,29.60,19,3,20,0.00
2013-7-30,95,78,56,42,32,19,50,22,7,29.90,29.76,17,2,17,0.00
2013-7-31,95,80,61,40,33,26,46,20,11,29.84,29.63,18,3,18,0.00
2013-8-1,89,72,53,41,21,-25,54,22,2,29.79,29.69,25,4,25,0.00
2013-8-2,89,74,51,31,22,8,41,18,5,29.84,29.70,13,2,13,0.00
2013-8-3,92,83,73,37,24,10,24,13,5,29.74,29.68,12,2,12,0.00
2013-8-4,96,79,57,41,31,14,51,21,6,29.80,29.64,15,2,15,0.00
2013-8-5,97,81,63,39,24,1,36,16,3,29.78,29.63,12,2,13,0.00
2013-8-6,98,82,68,38,29,9,32,17,4,29.74,29.57,14,3,14,0.00
2013-8-7,94,80,69,36,29,20,25,16,7,29.71,29.60,19,6,19,0.00
2013-8-8,90,75,63,42,36,26,41,25,13,29.72,29.58,24,4,24,0.00
2013-8-9,88,73,54,46,39,29,62,32,14,29.74,29.61,17,2,17,0.00
2013-8-10,88,74,55,37,29,16,47,22,8,29.81,29.69,16,3,18,0.00
2013-8-11,90,74,53,41,30,18,54,22,8,29.84,29.68,13,2,13,0.00
2013-8-12,93,77,59,39,30,20,42,21,8,29.80,29.67,16,2,16,0.00
2013-8-13,94,77,56,39,28,12,46,21,5,29.85,29.71,12,2,12,0.00
2013-8-14,97,78,55,37,27,12,47,20,5,29.82,29.65,12,2,12,0.00
2013-8-15,98,79,56,37,22,7,48,16,4,29.78,29.65,20,2,20,0.00
2013-8-16,96,77,54,33,23,10,44,17,6,29.85,29.73,14,2,14,0.00
2013-8-17,93,74,61,35,29,17,32,21,8,29.83,29.68,8,2,8,0.00
2013-8-18,98,82,63,44,37,24,39,22,8,29.79,29.64,25,4,25,0.00
2013-8-19,95,80,68,53,46,42,53,32,17,29.78,29.67,16,3,16,0.00
2013-8-20,98,80,65,57,47,36,68,35,12,29.81,29.57,37,4,37,0.01
2013-8-21,90,75,58,56,51,42,81,48,20,29.81,29.69,14,2,14,0.00
2013-8-22,91,75,60,52,45,30,71,38,14,29.81,29.62,13,2,13,0.00
2013-8-23,89,73,54,42,33,24,53,27,10,29.74,29.57,14,1,14,0.00
2013-8-24,89,70,53,43,32,16,57,28,7,29.72,29.58,15,1,15,0.00
2013-8-25,86,68,53,42,35,26,57,33,12,29.79,29.68,18,2,18,0.00
2013-8-26,88,71,50,44,37,28,71,34,13,29.87,29.70,11,1,11,0.00
2013-8-27,91,72,54,54,43,34,62,39,18,29.78,29.60,27,1,27,0.00
2013-8-28,92,75,57,56,49,41,78,46,18,29.77,29.65,11,2,11,0.00
2013-8-29,93,75,58,50,41,31,65,33,13,29.87,29.75,14,1,14,0.00
2013-8-30,89,67,58,40,36,28,45,34,14,29.93,29.81,8,1,8,0.00
2013-8-31,96,77,57,44,34,27,44,24,9,29.84,29.66,16,1,16,0.00
2013-9-1,95,76,62,52,39,31,44,29,13,29.74,29.60,7,1,9,0.00
2013-9-2,92,77,64,57,52,44,69,45,21,29.72,29.61,20,2,20,0.00
2013-9-3,91,75,61,58,54,49,75,50,25,29.79,29.66,20,2,20,0.00
2013-9-4,92,76,58,58,52,45,81,47,22,29.84,29.67,14,1,14,0.00
2013-9-5,93,75,57,53,40,25,71,35,9,29.78,29.63,22,5,31,0.00
2013-9-6,89,72,52,39,32,27,49,26,13,29.89,29.73,10,1,10,0.00
2013-9-7,91,72,49,40,30,20,53,25,8,29.87,29.69,10,1,10,0.00
2013-9-8,92,73,52,39,30,9,60,26,6,29.81,29.66,13,2,13,0.00
2013-9-9,88,72,53,41,33,25,49,26,13,29.80,29.66,20,2,20,0.00
2013-9-10,88,71,52,40,33,24,57,28,11,29.78,29.67,12,1,12,0.00
2013-9-11,91,74,58,43,34,28,40,25,11,29.80,29.70,12,2,16,0.00
2013-9-12,87,72,62,54,48,40,61,43,25,29.77,29.68,23,2,23,0.00
2013-9-13,87,70,55,54,49,44,78,51,24,29.78,29.63,20,2,20,0.00
2013-9-14,90,71,54,52,46,38,81,46,18,29.71,29.58,12,1,12,0.00
2013-9-15,93,75,54,49,40,25,69,33,9,29.67,29.52,19,3,19,0.00
2013-9-16,91,72,50,40,34,27,61,30,11,29.72,29.53,13,1,13,0.00
2013-9-17,84,68,52,40,30,10,62,30,8,29.77,29.45,27,5,27,0.00
2013-9-18,72,57,41,38,32,22,72,42,17,29.94,29.76,25,2,25,0.00
2013-9-19,80,58,37,31,27,20,68,35,11,30.01,29.79,10,1,10,0.00
2013-9-20,88,65,42,30,25,14,60,28,7,29.79,29.52,28,4,28,0.00
2013-9-21,75,58,43,45,33,25,72,43,18,29.69,29.35,31,3,31,0.04
2013-9-22,70,56,40,39,34,26,77,47,21,29.91,29.68,17,2,17,0.01
2013-9-23,78,58,39,42,36,29,84,49,18,30.00,29.84,11,1,11,0.00
2013-9-24,80,62,42,35,28,13,64,33,9,29.86,29.61,34,6,34,0.00
2013-9-25,59,50,39,37,29,21,79,46,25,29.79,29.62,24,4,24,0.00
2013-9-26,55,45,36,34,29,24,75,55,34,30.05,29.79,21,3,21,0.00
2013-9-27,63,46,32,31,28,24,80,53,25,30.19,30.05,10,1,10,0.00
2013-9-28,77,55,31,32,27,22,74,40,15,30.14,29.93,12,2,12,0.00
2013-9-29,78,68,56,31,27,23,37,23,15,29.95,29.77,26,7,26,0.00
2013-10-1,76,66,46,40,32,24,75,30,16,29.88,29.75,15,2,15,0.00
2013-10-2,73,54,36,31,24,5,72,35,7,29.92,29.75,24,3,24,0.00
2013-10-3,57,46,36,24,19,13,56,34,18,30.24,29.90,18,4,18,0.00
2013-10-4,59,44,30,25,20,16,65,39,19,30.42,30.24,13,2,13,0.00
2013-10-5,82,47,25,24,19,15,67,37,13,30.49,30.30,11,1,11,0.00
2013-10-6,76,52,29,31,20,10,67,35,9,30.32,30.02,10,0,10,0.00
2013-10-7,78,57,41,27,19,7,49,27,7,30.03,29.80,8,0,8,0.00
2013-10-8,66,54,39,28,23,17,57,31,18,29.90,29.62,14,2,14,0.00
2013-10-9,57,50,45,40,31,19,81,49,30,29.70,29.56,23,5,23,0.01
2013-10-10,66,53,42,34,29,22,66,42,24,29.91,29.70,20,3,20,0.00
2013-10-11,68,51,34,36,30,26,83,48,23,30.03,29.90,10,1,10,0.00
2013-10-12,72,53,36,35,27,16,76,43,13,29.94,29.75,17,2,17,0.00
2013-10-13,56,46,38,38,34,30,83,62,42,30.18,29.86,13,2,13,0.00
2013-10-14,61,47,33,33,29,24,81,54,26,30.29,30.16,13,1,13,0.00
2013-10-15,61,44,27,29,22,16,79,47,19,30.27,30.19,15,2,15,0.00
2013-10-16,67,46,25,29,21,14,69,41,17,30.27,30.11,8,0,8,0.00
2013-10-17,70,49,31,27,22,16,72,39,13,30.17,30.05,11,1,11,0.00
2013-10-18,70,49,30,27,22,18,68,40,16,30.23,30.09,10,0,10,0.00
2013-10-19,73,49,28,24,20,16,64,36,13,30.23,30.08,8,0,8,0.00
2013-10-20,75,52,30,26,20,16,64,34,12,30.12,29.98,10,1,10,0.00
2013-10-21,74,52,33,26,21,16,57,34,13,30.14,30.01,5,0,6,0.00
2013-10-22,75,52,33,28,24,20,68,37,15,30.15,29.99,9,0,9,0.00
2013-10-23,75,53,33,26,22,18,66,35,13,30.07,29.94,8,0,8,0.00
2013-10-24,76,53,33,24,21,15,62,32,11,30.07,29.97,7,0,7,0.00
2013-10-25,76,54,34,23,19,15,56,30,10,30.18,30.07,8,0,8,0.00
2013-10-26,72,51,32,21,18,14,51,30,11,30.25,30.08,9,1,9,0.00
2013-10-27,75,53,33,35,19,12,77,32,10,30.08,29.41,35,6,35,0.00
2013-10-28,47,40,35,37,34,30,91,80,56,29.80,29.41,18,4,18,0.21
2013-10-29,40,37,33,36,34,31,93,89,83,30.14,29.80,8,0,8,0.24
2013-10-30,50,39,31,36,33,29,92,80,52,30.25,30.13,4,0,7,0.01
2013-10-31,57,41,27,40,33,25,93,75,42,30.36,30.25,7,0,7,0.00
2013-11-1,62,43,29,41,35,27,94,76,43,30.36,30.12,7,0,7,0.00
2013-11-2,63,47,31,42,34,28,94,65,28,30.12,29.83,15,2,18,0.01
2013-11-3,49,43,38,33,22,11,62,44,23,30.03,29.91,16,3,16,0.00
2013-11-4,49,39,27,23,20,15,73,48,26,30.25,29.99,17,2,17,0.00
2013-11-5,54,38,22,24,21,17,84,55,25,30.40,30.23,9,1,9,0.00
2013-11-6,60,42,27,28,25,22,84,56,27,30.46,30.31,8,1,11,0.00
2013-11-7,61,46,35,33,31,27,75,58,29,30.33,30.05,9,1,9,0.00
2013-11-8,60,43,31,29,27,24,75,55,28,30.10,29.93,3,0,3,0.00
2013-11-9,64,45,30,33,28,24,85,56,27,30.15,30.02,8,1,8,0.00
2013-11-10,68,46,29,32,26,21,84,52,17,30.23,30.11,8,0,8,0.00
2013-11-11,68,44,29,30,25,21,78,51,18,30.28,30.18,9,0,9,0.00
2013-11-12,60,46,36,31,27,24,65,49,28,30.37,30.27,15,1,15,0.00
2013-11-13,64,45,31,32,28,23,74,54,28,30.36,30.24,11,1,11,0.00
2013-11-14,67,47,28,34,27,23,88,51,22,30.25,29.81,15,2,15,0.00
2013-11-15,50,41,32,33,27,23,87,60,38,29.88,29.73,17,3,17,0.00
2013-11-16,60,46,33,31,27,24,74,49,26,29.87,29.68,14,1,14,0.00
2013-11-17,63,43,27,31,26,21,85,56,26,30.11,29.87,9,0,9,0.00
2013-11-18,58,43,26,32,28,21,84,58,34,30.11,29.98,7,0,7,0.00
2013-11-19,61,49,42,42,34,31,87,56,36,29.99,29.86,16,1,16,0.05
2013-11-20,56,47,34,47,41,32,94,83,59,29.92,29.74,18,2,18,0.46
2013-11-21,34,31,28,32,27,20,94,87,71,30.42,29.91,12,3,12,0.08
2013-11-22,40,31,22,26,20,15,83,63,44,30.51,30.33,11,2,11,0.02
2013-11-23,48,34,23,26,21,16,88,61,34,30.35,30.21,9,1,9,0.00
2013-11-24,48,33,21,29,23,18,91,71,38,30.44,30.25,7,0,7,0.01
2013-11-25,49,33,21,31,25,19,92,77,47,30.55,30.44,6,0,6,0.00
2013-11-26,48,34,22,33,27,20,93,77,52,30.49,30.25,7,0,7,0.01
2013-11-27,50,35,24,36,29,22,93,79,52,30.25,30.04,7,0,8,0.00
2013-11-28,53,36,27,35,30,24,93,80,50,30.26,30.08,6,0,7,0.00
2013-11-29,53,37,24,36,30,22,94,79,48,30.37,30.25,6,0,6,0.01
2013-11-30,53,36,24,36,30,22,93,80,51,30.44,30.32,7,0,7,0.01
2013-12-1,56,38,24,36,29,22,93,74,38,30.50,30.37,9,0,9,0.00
2013-12-2,66,64,63,23,20,18,21,18,17,30.06,30.01,16,4,16,0.00
2013-12-3,30,24,17,27,20,13,90,81,76,29.90,29.69,18,3,18,0.00
2013-12-4,25,20,13,19,13,8,83,75,65,30.27,29.97,12,2,12,0.00
2013-12-5,29,22,14,15,13,10,84,69,49,30.29,30.21,7,1,7,0.00
2013-12-6,31,23,13,20,16,9,87,74,58,30.28,29.88,14,1,15,0.00
2013-12-7,31,25,8,27,18,1,91,74,56,30.29,29.80,18,3,18,0.01
2013-12-8,21,6,-3,12,1,-7,86,78,62,30.75,30.29,9,1,9,0.00
2013-12-9,20,7,-5,10,1,-9,85,76,63,30.94,30.75,10,1,10,0.00
2013-12-10,24,14,-2,14,8,-6,86,75,63,30.82,30.67,6,0,6,0.00
2013-12-11,28,12,2,15,6,-2,88,75,55,30.78,30.69,5,0,5,0.01
2013-12-12,28,14,2,16,8,-2,87,77,57,30.70,30.53,5,0,5,0.00
2013-12-13,34,18,6,22,13,2,91,80,61,30.77,30.54,7,0,7,0.00
2013-12-14,36,19,6,22,13,3,90,77,57,30.89,30.75,7,0,7,0.01
2013-12-15,37,21,9,24,15,6,88,78,56,30.83,30.67,4,0,4,0.00
2013-12-16,38,21,10,26,15,7,90,80,59,30.76,30.64,4,0,5,0.00
2013-12-17,36,23,12,26,18,9,91,83,66,30.69,30.40,5,0,5,0.00
2013-12-18,35,28,20,28,24,17,90,84,71,30.40,29.81,10,0,10,0.00
2013-12-19,36,30,15,30,23,11,92,76,55,30.18,29.81,20,4,20,0.01
2013-12-20,34,18,8,23,13,4,89,80,53,30.30,30.15,6,0,6,0.00
2013-12-21,51,33,20,35,25,16,88,74,51,30.19,30.12,13,1,14,0.00
2013-12-22,54,37,25,36,30,22,92,76,48,30.50,30.31,7,0,7,0.01
2013-12-23,52,34,23,37,29,20,93,81,54,30.56,30.47,5,0,5,0.00
2013-12-24,47,33,22,37,28,20,94,84,64,30.63,30.51,8,1,8,0.01
2013-12-25,47,31,20,36,26,18,94,84,63,30.67,30.55,7,0,7,0.00
2013-12-26,40,26,19,34,24,17,93,90,77,30.65,30.55,7,0,7,0.01
2013-12-27,30,25,19,29,23,16,94,93,91,30.60,30.36,4,0,4,0.01
2013-12-28,40,28,21,35,26,19,95,92,79,30.54,30.34,6,0,7,0.00
2013-12-29,33,22,18,30,20,16,94,92,87,30.61,30.51,3,0,4,0.01
2013-12-30,40,27,17,33,24,15,94,88,70,30.59,30.45,4,0,4,0.01
2013-12-31,49,32,23,34,27,21,94,82,51,30.48,30.34,7,0,7,0.00
2014-1-1,48,32,20,34,26,18,93,80,54,30.50,30.39,8,0,10,0.01
2014-1-2,50,30,21,33,25,19,93,82,48,30.43,30.27,4,0,4,0.00